• Join FlightAware (Why Join?)
  • Login
  • US Flag 
01:26AM EDT


 

Airport Tracker/Info


-or-


 

Live Flight TrackerFlight Track Log ✈ N53NW ✈ 03-Feb-2014 ✈ KPBI - KPDK

Flight Track Log - Related Links

Times and Time Zones

All times are in EST time to prevent confusion due to time zone crossing. See the N53NW flight status page for this flight to view local times or setup timezone preferences in your user account.

Time Position Orientation Groundspeed Altitude Reporting Facility
EST Latitude Longitude Course Direction KTS MPH feet Rate Location/Type
07:34AM 26.7358 -79.9992 336° Northwest 226 260 43,000  Level Miami Center
07:35AM 26.7900 -80.0053 354° North 238 274 43,000  Level Miami Center
07:36AM 26.8278 -80.0925 296° West 246 283 43,000 -15,540 Level Miami Center
07:37AM 26.8425 -80.1858 280° West 288 331 12,000 -14,700 Descending Miami Center
07:38AM 26.8869 -80.3351 336° Northwest  Level FlightAware Approximate
07:38AM 26.8569 -80.2819 280° West 314 361 13,700  Level Miami Center
07:39AM 26.8969 -80.3553 301° West 306 352 15,000 2,400 Climbing Miami Center
07:40AM 26.9708 -80.4086 327° Northwest 289 333 18,500 3,000 Climbing Miami Center
07:41AM 27.0344 -80.4481 331° Northwest 276 318 21,100 2,400 Climbing Miami Center
07:42AM 27.0983 -80.4825 334° Northwest 266 306 23,400 2,100 Climbing Miami Center
07:43AM 27.1706 -80.5197 335° Northwest 266 306 25,400 2,040 Climbing Miami Center
07:44AM 27.2469 -80.5525 339° North 278 320 27,500 1,980 Climbing Miami Center
07:45AM 27.3294 -80.5903 338° Northwest 296 341 29,400 1,980 Climbing Miami Center
07:46AM 27.4100 -80.6256 339° North 308 354 31,500 2,040 Climbing Miami Center
07:47AM 27.4928 -80.6611 339° North 308 354 33,500 1,980 Climbing Miami Center
07:48AM 27.5753 -80.6967 339° North 308 354 35,500 1,860 Climbing Miami Center
07:49AM 27.6536 -80.7322 338° Northwest 308 354 37,300 1,560 Climbing Miami Center
07:50AM 27.7339 -80.7678 339° North 308 354 38,700 1,200 Climbing Miami Center
07:51AM 27.8147 -80.7964 343° North 308 354 39,800 1,020 Climbing Miami Center
07:52AM 27.8992 -80.8344 338° Northwest 313 360 40,800 600 Climbing Miami Center
07:53AM 27.9858 -80.8750 338° Northwest 325 374 41,000 60 Climbing Miami Center
07:54AM 28.0806 -80.9161 339° North 343 395 41,000  Level Miami Center
07:55AM 28.1753 -80.9594 338° Northwest 359 413 41,000  Level Miami Center
07:56AM 28.2722 -81.0031 338° Northwest 370 426 41,000  Level Miami Center
07:57AM 28.3628 -81.0419 339° North 375 432 41,000  Level Miami Center
07:59AM 28.5617 -81.1364 337° Northwest 385 443 41,000  Level Jacksonville Center
08:00AM 28.6603 -81.1819 338° Northwest 375 432 41,000  Level Jacksonville Center
08:01AM 28.7569 -81.2253 339° North 375 432 41,000  Level Jacksonville Center
08:02AM 28.8533 -81.2689 338° Northwest 380 437 41,000  Level Jacksonville Center
08:03AM 28.9542 -81.3097 340° North 380 437 41,000  Level Jacksonville Center
08:04AM 29.0506 -81.3581 336° Northwest 375 432 41,000  Level Jacksonville Center
08:05AM 29.1472 -81.4019 338° Northwest 375 432 41,000  Level Jacksonville Center
08:06AM 29.2522 -81.4525 337° Northwest 375 432 41,000  Level Jacksonville Center
08:07AM 29.3486 -81.4964 338° Northwest 375 432 41,000  Level Jacksonville Center
08:08AM 29.4472 -81.5428 338° Northwest 375 432 41,000  Level Jacksonville Center
08:09AM 29.5436 -81.5844 339° North 375 432 41,000  Level Jacksonville Center
08:10AM 29.6403 -81.6286 338° Northwest 375 432 41,000  Level Jacksonville Center
08:11AM 29.7386 -81.6728 339° North 375 432 41,000  Level Jacksonville Center
08:12AM 29.8353 -81.7194 337° Northwest 375 432 41,000  Level Jacksonville Center
08:13AM 29.9317 -81.7636 338° Northwest 375 432 41,000  Level Jacksonville Center
08:14AM 30.0261 -81.8081 338° Northwest 375 432 41,000  Level Jacksonville Center
08:15AM 30.1203 -81.8503 339° North 370 426 41,000  Level Jacksonville Center
08:16AM 30.2208 -81.8950 339° North 370 426 41,000  Level Jacksonville Center
08:17AM 30.3214 -81.9300 343° North 375 432 41,000  Level Jacksonville Center
08:18AM 30.4219 -81.9700 341° North 375 432 41,000  Level Jacksonville Center
08:19AM 30.5139 -82.0125 338° Northwest 380 437 41,000 -60 Level Jacksonville Center
08:20AM 30.6103 -82.0503 341° North 380 437 40,900 -600 Descending Jacksonville Center
08:21AM 30.7086 -82.0881 342° North 375 432 39,800 -960 Descending Jacksonville Center
08:22AM 30.8050 -82.1258 341° North 365 420 39,000 -420 Descending Jacksonville Center
08:23AM 30.9033 -82.1661 341° North 365 420 39,000  Level Jacksonville Center
08:24AM 30.9997 -82.2042 341° North 365 420 39,000  Level Jacksonville Center
08:25AM 31.0958 -82.2425 341° North 365 420 39,000  Level Jacksonville Center
08:26AM 31.1922 -82.2831 340° North 365 420 39,000  Level Jacksonville Center
08:27AM 31.2903 -82.3189 343° North 365 420 39,000 -60 Level Jacksonville Center
08:28AM 31.3969 -82.3572 343° North 365 420 38,900 -900 Descending Jacksonville Center
08:29AM 31.4933 -82.3981 340° North 365 420 37,300 -1,620 Descending Jacksonville Center
08:30AM 31.5936 -82.4364 342° North 365 420 35,700 -1,620 Descending Jacksonville Center
08:31AM 31.6939 -82.4775 341° North 370 426 34,100 -780 Descending Jacksonville Center
08:33AM 31.9342 -82.5731 341° North 377 434 33,000 -360 Descending Atlanta Center
08:34AM 32.0347 -82.6153 340° North 377 434 33,000 -300 Level Atlanta Center
08:35AM 32.1333 -82.6581 340° North 367 422 32,400 -1,080 Descending Atlanta Center
08:36AM 32.2297 -82.6958 342° North 367 422 30,900 -1,500 Descending Atlanta Center
08:37AM 32.3219 -82.7336 341° North 367 422 29,400 -1,500 Descending Atlanta Center
08:38AM 32.4142 -82.7717 341° North 356 410 27,900 -1,500 Descending Atlanta Center
08:39AM 32.5044 -82.8097 340° North 349 402 26,400 -1,560 Descending Atlanta Center
08:40AM 32.5906 -82.8603 334° Northwest 331 381 24,800 -1,500 Descending Atlanta Center
08:41AM 32.6558 -82.9261 320° Northwest 321 369 23,400 -1,320 Descending Atlanta Center
08:42AM 32.7147 -82.9847 320° Northwest 314 361 22,200 -1,200 Descending Atlanta Center
08:43AM 32.7717 -83.0408 320° Northwest 290 334 21,000 -1,260 Descending Atlanta Center
08:44AM 32.8347 -83.1044 320° Northwest 277 319 19,700 -1,260 Descending Atlanta Center
08:45AM 32.8894 -83.1581 321° Northwest 260 299 18,500 -1,200 Descending Atlanta Center
08:46AM 32.9419 -83.2169 317° Northwest 260 299 17,400 -1,140 Descending Atlanta Center
08:47AM 32.9944 -83.2661 322° Northwest 265 305 16,300 -1,200 Descending Atlanta Center
08:48AM 33.0492 -83.3225 319° Northwest 265 305 15,100 -1,260 Descending Atlanta Center
08:49AM 33.1078 -83.3817 320° Northwest 259 298 13,800 -1,260 Descending Atlanta Center
08:50AM 33.1625 -83.4383 319° Northwest 259 298 12,600 -1,260 Descending Atlanta Center
08:51AM 33.2147 -83.4900 320° Northwest 259 298 11,300 -840 Descending Atlanta Center
08:52AM 33.2672 -83.5444 319° Northwest 259 298 11,000 -180 Descending Atlanta Center
08:53AM 33.3197 -83.5989 319° Northwest 259 298 11,000  Level Atlanta Center
08:54AM 33.3719 -83.6533 319° Northwest 253 291 11,000  Level Atlanta Center
08:55AM 33.4306 -83.7003 326° Northwest 253 291 11,000 -600 Level Atlanta Center
08:56AM 33.5036 -83.7225 346° North 253 291 9,800 -1,260 Descending Atlanta Center
08:57AM 33.5683 -83.7397 347° North 247 284 8,500 -1,380 Descending Atlanta Center
08:58AM 33.6289 -83.7544 349° North 226 260 7,100 -1,320 Descending Atlanta Center
08:59AM 33.6811 -83.7667 349° North 214 246 5,900 -1,320 Descending Atlanta Center
09:00AM 33.7356 -83.7839 345° North 204 235 4,500 -960 Descending Atlanta Center
09:01AM 33.7669 -83.8314 308° West 183 211 4,000 -480 Descending Atlanta Center
09:02AM 33.7858 -83.8889 292° West 174 200 3,600 -420 Descending Atlanta Center
09:04AM 33.8167 -83.9833 291° West 182 209 3,000 -240 Descending Atlanta TRACON
09:05AM 33.8500 -84.0333 309° West 188 216 3,000 -240 Level Atlanta TRACON
09:06AM 33.8667 -84.1000 287° West 178 205 2,600 -240 Descending Atlanta TRACON
09:07AM 33.8667 -84.1500 270° West 165 190 2,600 -60 Level Atlanta TRACON
09:08AM 33.8667 -84.2000 270° West 172 198 2,500 -540 Descending Atlanta TRACON
09:09AM 33.8667 -84.2667 270° West 154 177 1,600 -360 Descending Atlanta TRACON
09:10AM 33.8500 -84.3000 239° Southwest 138 159 1,800 660 Climbing Atlanta TRACON
09:11AM 33.8167 -84.3500 231° Southwest 205 236 3,000 540 Climbing Atlanta TRACON
09:12AM 33.8000 -84.4167 253° West 223 257 3,000 480 Level Atlanta TRACON
09:13AM 33.8167 -84.4833 287° West 218 251 4,000 420 Climbing Atlanta TRACON
09:14AM 33.8333 -84.5667 284° West 217 250 4,000  Level Atlanta TRACON
09:15AM 33.8500 -84.6333 287° West 218 251 4,000  Level Atlanta TRACON
09:16AM 33.8667 -84.7000 287° West 221 254 4,000  Level Atlanta TRACON
09:17AM 33.8833 -84.7667 287° West 220 253 4,000  Level Atlanta TRACON
09:18AM 33.8833 -84.8333 270° West 215 247 4,000  Level Atlanta TRACON
09:19AM 33.9500 -84.8333 360° North 239 275 4,000  Level Atlanta TRACON
09:20AM 34.0000 -84.7833 40° Northeast 240 276 4,000  Level Atlanta TRACON
09:21AM 34.0500 -84.7500 29° Northeast 249 287 4,000  Level Atlanta TRACON
09:22AM 34.0833 -84.6667 64° Northeast 265 305 4,000  Level Atlanta TRACON
09:23AM 34.0833 -84.5833 90° East 262 302 4,000  Level Atlanta TRACON
09:24AM 34.0333 -84.5500 151° Southeast 248 285 4,000  Level Atlanta TRACON
09:25AM 33.9667 -84.5667 192° South 230 265 4,000  Level Atlanta TRACON
09:26AM 33.9167 -84.5667 180° South 226 260 4,000  Level Atlanta TRACON
09:27AM 33.8667 -84.6000 209° Southwest 215 247 4,000  Level Atlanta TRACON
09:28AM 33.8500 -84.6500 248° West 193 222 4,000  Level Atlanta TRACON
09:29AM 33.8500 -84.7167 270° West 203 234 4,000  Level Atlanta TRACON
09:30AM 33.8667 -84.7667 292° West 213 245 4,000  Level Atlanta TRACON
09:31AM 33.9167 -84.7667 360° North 211 243 4,000  Level Atlanta TRACON
09:32AM 33.9667 -84.7167 40° Northeast 226 260 4,000  Level Atlanta TRACON
09:33AM 34.0167 -84.6667 40° Northeast 225 259 4,000  Level Atlanta TRACON
09:34AM 34.0667 -84.6167 40° Northeast 231 266 4,000  Level Atlanta TRACON
09:35AM 34.1000 -84.5500 59° Northeast 221 254 4,000  Level Atlanta TRACON
09:36AM 34.1000 -84.4833 90° East 213 245 4,000  Level Atlanta TRACON
09:37AM 34.1167 -84.4167 73° East 209 241 4,000  Level Atlanta TRACON
09:38AM 34.1167 -84.3500 90° East 212 244 4,000  Level Atlanta TRACON
09:39AM 34.1333 -84.2833 73° East 199 229 4,000  Level Atlanta TRACON
09:40AM 34.1333 -84.2167 90° East 208 239 4,000 -300 Level Atlanta TRACON
09:41AM 34.0833 -84.2000 165° South 174 200 3,500 -540 Descending Atlanta TRACON
09:42AM 34.0500 -84.2167 203° Southwest 112 129 3,000 -240 Descending Atlanta TRACON
09:43AM 34.0167 -84.2333 203° Southwest 100 115 3,000  Level Atlanta TRACON
09:44AM 34.0000 -84.2500 220° Southwest 102 117 3,000 -60 Level Atlanta TRACON
09:45AM 33.9667 -84.2500 180° South 106 122 2,900 -360 Descending Atlanta TRACON
09:46AM 33.9500 -84.2667 220° Southwest 112 129 2,300 -600 Descending Atlanta TRACON
09:47AM 33.9167 -84.2833 203° Southwest 122 140 1,800 -540 Descending Atlanta TRACON